createdAt,value
2018-11-11T00:00:00.364Z,8.20
2018-11-11T00:02:30.840Z,8.10
2018-11-11T00:04:59.769Z,8.10
2018-11-11T00:07:28.616Z,8.00
2018-11-11T00:10:18.157Z,8.10
2018-11-11T00:12:47.017Z,7.90
2018-11-11T00:15:16.883Z,8.20
2018-11-11T00:17:46.678Z,8.10
2018-11-11T00:20:15.526Z,8.10
2018-11-11T00:22:44.370Z,8.00
2018-11-11T00:25:13.220Z,8.00
2018-11-11T00:27:42.112Z,8.00
2018-11-11T00:30:15.863Z,8.20
2018-11-11T00:32:44.832Z,8.20
2018-11-11T00:35:13.746Z,8.20
2018-11-11T00:37:42.603Z,8.20
2018-11-11T00:40:12.672Z,8.40
2018-11-11T00:42:41.726Z,8.20
2018-11-11T00:45:11.137Z,8.20
2018-11-11T00:47:39.992Z,8.00
2018-11-11T00:50:09.850Z,8.00
2018-11-11T00:52:38.936Z,8.00
2018-11-11T00:55:10.911Z,7.90
2018-11-11T00:57:39.983Z,8.10
2018-11-11T01:00:14.497Z,8.20
2018-11-11T01:02:43.910Z,8.30
2018-11-11T01:05:13.450Z,8.10
2018-11-11T01:07:42.851Z,8.10
2018-11-11T01:10:13.469Z,7.90
2018-11-11T01:12:43.165Z,8.10
2018-11-11T01:15:14.125Z,8.10
2018-11-11T01:17:43.098Z,8.00
2018-11-11T01:20:13.965Z,8.10
2018-11-11T01:22:43.124Z,8.10
2018-11-11T01:25:13.992Z,8.00
2018-11-11T01:27:42.969Z,8.00
2018-11-11T01:30:11.828Z,7.80
2018-11-11T01:32:40.708Z,7.90
2018-11-11T01:35:11.750Z,8.00
2018-11-11T01:37:41.103Z,8.00
2018-11-11T01:40:10.201Z,8.30
2018-11-11T01:42:39.041Z,8.00
2018-11-11T01:45:14.473Z,8.00
2018-11-11T01:47:43.648Z,8.00
2018-11-11T01:50:12.926Z,8.10
2018-11-11T01:52:41.898Z,8.10
2018-11-11T01:55:11.640Z,8.10
2018-11-11T01:57:40.516Z,8.20
2018-11-11T02:00:11.953Z,8.00
2018-11-11T02:02:40.959Z,8.20
2018-11-11T02:05:11.123Z,8.20
2018-11-11T02:07:40.368Z,8.00
2018-11-11T02:10:10.107Z,8.20
2018-11-11T02:12:40.509Z,8.10
2018-11-11T02:15:10.628Z,7.90
2018-11-11T02:17:39.633Z,8.10
2018-11-11T02:20:11.290Z,8.20
2018-11-11T02:22:40.271Z,8.10
2018-11-11T02:25:09.900Z,8.10
2018-11-11T02:27:38.757Z,8.10
2018-11-11T02:30:10.080Z,8.30
2018-11-11T02:32:39.439Z,8.00
2018-11-11T02:35:08.545Z,8.30
2018-11-11T02:37:37.697Z,8.30
2018-11-11T02:40:08.188Z,8.10
2018-11-11T02:42:37.271Z,8.50
2018-11-11T02:45:07.595Z,8.40
2018-11-11T02:47:36.703Z,8.10
2018-11-11T02:50:06.906Z,8.30
2018-11-11T02:52:35.777Z,8.40
2018-11-11T02:55:04.688Z,8.30
2018-11-11T02:57:33.587Z,8.10
2018-11-11T03:00:02.582Z,8.20
2018-11-11T03:02:31.527Z,8.00
2018-11-11T03:05:00.447Z,8.20
2018-11-11T03:07:29.295Z,8.10
2018-11-11T03:09:58.211Z,8.50
2018-11-11T03:12:27.232Z,8.10
2018-11-11T03:14:56.162Z,8.20
2018-11-11T03:17:25.059Z,8.30
2018-11-11T03:19:53.915Z,8.10
2018-11-11T03:22:22.766Z,7.90
2018-11-11T03:24:51.663Z,8.10
2018-11-11T03:27:20.525Z,8.10
2018-11-11T03:29:49.397Z,8.30
2018-11-11T03:32:18.267Z,8.20
2018-11-11T03:34:47.160Z,8.10
2018-11-11T03:37:16.053Z,8.40
2018-11-11T03:39:44.938Z,8.30
2018-11-11T03:42:13.817Z,8.00
2018-11-11T03:44:42.851Z,8.10
2018-11-11T03:47:11.748Z,8.10
2018-11-11T03:49:40.648Z,8.10
2018-11-11T03:52:09.569Z,8.00
2018-11-11T03:54:38.412Z,8.20
2018-11-11T03:57:07.273Z,8.30
2018-11-11T03:59:36.143Z,8.30
2018-11-11T04:02:05.010Z,8.00
2018-11-11T04:04:33.979Z,8.10
2018-11-11T04:07:02.869Z,8.20
2018-11-11T04:09:31.732Z,8.10
2018-11-11T04:12:00.681Z,8.20
2018-11-11T04:14:29.575Z,8.20
2018-11-11T04:16:58.489Z,8.10
2018-11-11T04:19:27.367Z,7.90
2018-11-11T04:21:56.250Z,8.20
2018-11-11T04:24:25.114Z,8.10
2018-11-11T04:26:54.039Z,8.20
2018-11-11T04:29:22.952Z,7.90
2018-11-11T04:31:51.809Z,8.10
2018-11-11T04:34:20.685Z,8.20
2018-11-11T04:36:49.570Z,8.10
2018-11-11T04:39:18.521Z,8.10
2018-11-11T04:41:47.309Z,8.00
2018-11-11T04:44:16.173Z,8.00
2018-11-11T04:46:45.053Z,7.90
2018-11-11T04:49:13.913Z,7.90
2018-11-11T04:51:42.773Z,7.90
2018-11-11T04:54:12.675Z,7.90
2018-11-11T04:56:41.530Z,8.00
2018-11-11T04:59:10.479Z,8.00
2018-11-11T05:01:39.447Z,7.90
2018-11-11T05:04:08.492Z,8.00
2018-11-11T05:06:37.380Z,8.00
2018-11-11T05:09:08.717Z,8.00
2018-11-11T05:11:37.679Z,8.00
2018-11-11T05:14:06.690Z,7.70
2018-11-11T05:16:35.532Z,7.80
2018-11-11T05:19:04.971Z,8.00
2018-11-11T05:21:33.864Z,7.90
2018-11-11T05:24:02.987Z,7.90
2018-11-11T05:26:31.833Z,7.70
2018-11-11T05:29:00.775Z,7.90
2018-11-11T05:31:29.616Z,7.80
2018-11-11T05:33:58.505Z,7.80
2018-11-11T05:36:27.408Z,7.60
2018-11-11T05:38:56.287Z,7.80
2018-11-11T05:41:25.412Z,7.70
2018-11-11T05:43:54.291Z,7.80
2018-11-11T05:46:23.169Z,7.80
2018-11-11T05:48:52.086Z,7.80
2018-11-11T05:51:20.973Z,7.70
2018-11-11T05:53:49.959Z,7.80
2018-11-11T05:56:18.826Z,7.70
2018-11-11T05:58:47.694Z,7.60
2018-11-11T06:01:16.575Z,7.50
2018-11-11T06:03:45.430Z,7.50
2018-11-11T06:06:14.308Z,7.80
2018-11-11T06:08:43.203Z,7.60
2018-11-11T06:11:12.689Z,7.80
2018-11-11T06:13:41.562Z,7.40
2018-11-11T06:16:10.428Z,7.60
2018-11-11T06:18:39.317Z,7.80
2018-11-11T06:21:08.275Z,7.40
2018-11-11T06:23:37.134Z,7.60
2018-11-11T06:26:06.399Z,7.60
2018-11-11T06:28:35.314Z,7.70
2018-11-11T06:31:04.221Z,7.70
2018-11-11T06:33:33.112Z,7.40
2018-11-11T06:36:02.281Z,7.70
2018-11-11T06:38:31.204Z,7.70
2018-11-11T06:41:00.086Z,7.80
2018-11-11T06:43:28.976Z,7.60
2018-11-11T06:45:57.904Z,7.70
2018-11-11T06:48:26.758Z,7.70
2018-11-11T06:50:55.626Z,7.60
2018-11-11T06:53:24.519Z,7.70
2018-11-11T06:55:53.449Z,7.70
2018-11-11T06:58:22.327Z,7.60
2018-11-11T07:00:51.213Z,7.70
2018-11-11T07:03:31.644Z,7.70
2018-11-11T07:06:00.557Z,7.80
2018-11-11T07:08:29.476Z,7.60
2018-11-11T07:10:58.332Z,7.80
2018-11-11T07:13:27.186Z,7.70
2018-11-11T07:15:56.107Z,7.80
2018-11-11T07:18:24.988Z,7.70
2018-11-11T07:20:53.910Z,7.70
2018-11-11T07:23:22.798Z,8.20
2018-11-11T07:25:51.642Z,7.80
2018-11-11T07:28:20.513Z,7.80
2018-11-11T07:30:49.389Z,7.80
2018-11-11T07:33:18.431Z,7.90
2018-11-11T07:35:47.364Z,8.00
2018-11-11T07:38:16.262Z,8.10
2018-11-11T07:40:45.138Z,8.10
2018-11-11T07:43:14.072Z,8.10
2018-11-11T07:45:42.930Z,7.90
2018-11-11T07:48:11.803Z,8.20
2018-11-11T07:50:40.725Z,8.10
2018-11-11T07:53:09.576Z,8.20
2018-11-11T07:55:38.527Z,8.10
2018-11-11T07:58:07.406Z,8.40
2018-11-11T08:00:36.251Z,8.10
2018-11-11T08:03:05.114Z,8.30
2018-11-11T08:05:34.078Z,8.30
2018-11-11T08:08:02.934Z,8.60
2018-11-11T08:10:43.316Z,8.50
2018-11-11T08:13:12.244Z,8.50
2018-11-11T08:15:41.123Z,8.50
2018-11-11T08:18:10.055Z,8.30
2018-11-11T08:20:39.007Z,8.50
2018-11-11T08:23:07.892Z,8.70
2018-11-11T08:25:36.968Z,8.60
2018-11-11T08:28:05.771Z,8.50
2018-11-11T08:30:35.674Z,8.60
2018-11-11T08:33:04.713Z,8.80
2018-11-11T08:35:33.585Z,8.90
2018-11-11T08:38:02.552Z,8.50
2018-11-11T08:40:31.470Z,8.80
2018-11-11T08:43:00.317Z,8.70
2018-11-11T08:45:29.292Z,9.20
2018-11-11T08:47:58.271Z,9.20
2018-11-11T08:50:27.125Z,8.90
2018-11-11T08:52:56.022Z,9.10
2018-11-11T08:55:24.912Z,9.40
2018-11-11T08:57:53.848Z,9.30
2018-11-11T09:00:22.739Z,9.40
2018-11-11T09:02:51.731Z,9.40
2018-11-11T09:05:20.651Z,9.20
2018-11-11T09:07:49.546Z,9.40
2018-11-11T09:10:18.440Z,9.50
2018-11-11T09:12:47.362Z,9.70
2018-11-11T09:15:16.385Z,9.70
2018-11-11T09:17:45.318Z,9.80
2018-11-11T09:20:15.281Z,9.70
2018-11-11T09:22:44.163Z,9.70
2018-11-11T09:25:13.037Z,9.70
2018-11-11T09:27:42.391Z,9.90
2018-11-11T09:30:13.036Z,9.70
2018-11-11T09:32:42.315Z,9.90
2018-11-11T09:35:11.895Z,10.10
2018-11-11T09:37:41.039Z,9.70
2018-11-11T09:40:11.147Z,9.80
2018-11-11T09:42:40.140Z,9.70
2018-11-11T09:45:10.885Z,10.10
2018-11-11T09:47:39.885Z,10.00
2018-11-11T09:50:10.743Z,10.10
2018-11-11T09:52:40.138Z,9.90
2018-11-11T09:55:10.298Z,10.20
2018-11-11T09:57:39.600Z,10.00
2018-11-11T10:00:11.775Z,10.10
2018-11-11T10:08:44.105Z,10.20
2018-11-11T10:11:24.608Z,10.30
2018-11-11T10:13:59.006Z,10.20
2018-11-11T10:16:33.517Z,10.20
2018-11-11T10:19:09.414Z,10.10
2018-11-11T10:23:51.831Z,10.10
2018-11-11T10:26:26.084Z,10.20
2018-11-11T10:29:00.306Z,10.10
2018-11-11T10:32:32.461Z,10.00
2018-11-11T10:35:08.353Z,10.20
2018-11-11T10:37:42.459Z,10.00
2018-11-11T10:40:19.340Z,10.40
2018-11-11T10:42:54.419Z,10.20
2018-11-11T10:45:32.257Z,10.40
2018-11-11T10:48:03.404Z,10.40
2018-11-11T10:50:38.138Z,10.40
2018-11-11T10:53:07.204Z,10.50
2018-11-11T10:55:36.105Z,10.80
2018-11-11T10:58:05.073Z,10.90
2018-11-11T11:00:39.417Z,10.80
2018-11-11T11:03:13.779Z,10.80
2018-11-11T11:05:42.686Z,10.90
2018-11-11T11:08:11.562Z,11.10
2018-11-11T11:10:40.446Z,11.10
2018-11-11T11:13:09.338Z,11.10
2018-11-11T11:15:38.223Z,11.40
2018-11-11T11:18:07.099Z,11.20
2018-11-11T11:20:35.952Z,11.30
2018-11-11T11:23:05.238Z,11.50
2018-11-11T11:25:34.092Z,11.30
2018-11-11T11:28:02.920Z,11.80
2018-11-11T11:30:31.795Z,11.60
2018-11-11T11:33:00.673Z,11.60
2018-11-11T11:35:29.602Z,11.50
2018-11-11T11:37:58.453Z,11.80
2018-11-11T11:40:27.372Z,11.90
2018-11-11T11:42:56.351Z,11.70
2018-11-11T11:45:25.255Z,11.80
2018-11-11T11:47:54.140Z,12.00
2018-11-11T11:50:23.036Z,12.00
2018-11-11T11:52:51.930Z,12.10
2018-11-11T11:55:20.793Z,12.00
2018-11-11T11:58:01.378Z,12.10
2018-11-11T12:00:30.230Z,12.30
2018-11-11T12:02:59.125Z,12.20
2018-11-11T12:05:28.164Z,12.10
2018-11-11T12:07:57.069Z,12.00
2018-11-11T12:10:25.960Z,12.20
2018-11-11T12:12:54.854Z,12.10
2018-11-11T12:15:23.758Z,12.10
2018-11-11T12:17:52.701Z,12.40
2018-11-11T12:20:21.600Z,12.20
2018-11-11T12:22:50.522Z,12.00
2018-11-11T12:25:19.464Z,12.20
2018-11-11T12:27:48.327Z,12.00
2018-11-11T12:30:17.243Z,12.40
2018-11-11T12:32:46.167Z,12.20
2018-11-11T12:35:15.111Z,12.40
2018-11-11T12:37:44.016Z,12.70
2018-11-11T12:40:13.064Z,12.70
2018-11-11T12:42:42.922Z,12.80
2018-11-11T12:45:12.483Z,12.80
2018-11-11T12:47:41.338Z,12.90
2018-11-11T12:50:11.748Z,12.60
2018-11-11T12:52:40.662Z,12.70
2018-11-11T12:55:09.655Z,13.00
2018-11-11T12:57:38.545Z,12.60
2018-11-11T13:00:12.728Z,12.80
2018-11-11T13:02:41.643Z,12.90
2018-11-11T13:05:11.005Z,12.70
2018-11-11T13:07:39.909Z,12.80
2018-11-11T13:10:10.917Z,12.90
2018-11-11T13:12:40.116Z,12.90
2018-11-11T13:15:10.558Z,12.80
2018-11-11T13:17:39.948Z,12.90
2018-11-11T13:20:15.194Z,12.70
2018-11-11T13:22:44.282Z,12.80
2018-11-11T13:25:13.813Z,13.20
2018-11-11T13:27:42.714Z,12.70
2018-11-11T13:30:12.846Z,13.10
2018-11-11T13:32:41.726Z,12.90
2018-11-11T13:35:12.515Z,13.10
2018-11-11T13:37:41.892Z,13.00
2018-11-11T13:40:13.419Z,13.10
2018-11-11T13:42:42.496Z,13.30
2018-11-11T13:45:13.849Z,13.30
2018-11-11T13:47:43.765Z,13.20
2018-11-11T13:50:14.915Z,13.40
2018-11-11T13:52:44.393Z,13.20
2018-11-11T13:55:14.090Z,13.40
2018-11-11T13:57:43.701Z,13.30
2018-11-11T14:00:16.380Z,13.30
2018-11-11T14:02:45.298Z,13.60
2018-11-11T14:05:14.218Z,13.40
2018-11-11T14:07:43.122Z,13.70
2018-11-11T14:10:12.771Z,13.80
2018-11-11T14:12:41.682Z,13.60
2018-11-11T14:15:16.600Z,13.90
2018-11-11T14:17:46.108Z,13.70
2018-11-11T14:20:16.208Z,13.90
2018-11-11T14:22:46.129Z,13.60
2018-11-11T14:25:17.647Z,13.80
2018-11-11T14:27:46.576Z,14.10
2018-11-11T14:30:30.717Z,13.60
2018-11-11T14:32:59.863Z,13.90
2018-11-11T14:35:28.736Z,13.70
2018-11-11T14:37:57.631Z,13.90
2018-11-11T14:40:27.757Z,13.80
2018-11-11T14:42:56.716Z,13.80
2018-11-11T14:45:25.900Z,13.50
2018-11-11T14:47:55.830Z,13.40
2018-11-11T14:50:25.326Z,13.40
2018-11-11T14:52:54.380Z,13.60
2018-11-11T14:55:25.518Z,13.20
2018-11-11T14:57:54.703Z,13.40
2018-11-11T15:00:27.964Z,13.40
2018-11-11T15:03:05.158Z,13.20
2018-11-11T15:05:34.350Z,13.20
2018-11-11T15:08:03.512Z,13.20
2018-11-11T15:10:32.486Z,13.10
2018-11-11T15:13:01.438Z,13.10
2018-11-11T15:15:30.383Z,13.10
2018-11-11T15:18:00.343Z,12.90
2018-11-11T15:20:29.414Z,12.80
2018-11-11T15:22:58.214Z,12.70
2018-11-11T15:25:28.317Z,12.90
2018-11-11T15:27:57.160Z,12.60
2018-11-11T15:30:29.390Z,12.60
2018-11-11T15:32:59.009Z,12.70
2018-11-11T15:35:28.002Z,12.60
2018-11-11T15:37:56.881Z,12.50
2018-11-11T15:40:28.230Z,12.60
2018-11-11T15:42:57.261Z,12.20
2018-11-11T15:45:33.457Z,12.20
2018-11-11T15:48:02.605Z,12.30
2018-11-11T15:50:32.598Z,12.30
2018-11-11T15:53:03.661Z,12.10
2018-11-11T15:55:34.073Z,12.20
2018-11-11T15:58:02.997Z,11.70
2018-11-11T16:00:33.235Z,11.90
2018-11-11T16:03:02.117Z,12.00
2018-11-11T16:05:31.036Z,11.80
2018-11-11T16:08:00.601Z,11.70
2018-11-11T16:10:30.688Z,11.70
2018-11-11T16:12:59.903Z,11.70
2018-11-11T16:15:33.205Z,11.80
2018-11-11T16:18:04.056Z,11.70
2018-11-11T16:20:33.123Z,11.50
2018-11-11T16:23:03.201Z,11.60
2018-11-11T16:25:32.705Z,11.30
2018-11-11T16:28:01.554Z,11.30
2018-11-11T16:30:32.680Z,11.40
2018-11-11T16:33:02.197Z,11.10
2018-11-11T16:35:31.711Z,11.20
2018-11-11T16:38:01.255Z,11.30
2018-11-11T16:40:31.891Z,11.30
2018-11-11T16:43:01.971Z,11.00
2018-11-11T16:45:32.158Z,11.30
2018-11-11T16:48:01.434Z,10.80
2018-11-11T16:50:31.558Z,10.80
2018-11-11T16:53:02.066Z,11.10
2018-11-11T16:55:32.006Z,11.00
2018-11-11T16:58:01.150Z,10.80
2018-11-11T17:00:31.565Z,10.90
2018-11-11T17:03:01.518Z,10.70
2018-11-11T17:05:32.460Z,10.80
2018-11-11T17:08:01.546Z,10.80
2018-11-11T17:10:32.485Z,10.70
2018-11-11T17:13:04.134Z,10.60
2018-11-11T17:15:33.868Z,10.50
2018-11-11T17:18:02.840Z,10.70
2018-11-11T17:20:31.977Z,10.60
2018-11-11T17:23:02.808Z,10.70
2018-11-11T17:25:31.707Z,10.40
2018-11-11T17:28:01.025Z,10.50
2018-11-11T17:30:32.116Z,10.60
2018-11-11T17:33:02.229Z,10.70
2018-11-11T17:35:31.235Z,10.70
2018-11-11T17:38:00.423Z,10.40
2018-11-11T17:40:30.562Z,10.60
2018-11-11T17:43:00.944Z,10.40
2018-11-11T17:45:30.089Z,10.40
2018-11-11T17:47:59.159Z,10.20
2018-11-11T17:50:29.285Z,10.60
2018-11-11T17:52:58.863Z,10.50
2018-11-11T17:55:28.419Z,10.40
2018-11-11T17:57:57.312Z,10.30
2018-11-11T18:00:27.329Z,10.30
2018-11-11T18:02:56.886Z,10.30
2018-11-11T18:05:27.041Z,10.40
2018-11-11T18:07:56.406Z,10.40
2018-11-11T18:10:26.082Z,10.40
2018-11-11T18:12:55.034Z,10.40
2018-11-11T18:15:26.419Z,10.40
2018-11-11T18:17:55.399Z,10.20
2018-11-11T18:20:26.604Z,10.10
2018-11-11T18:22:56.406Z,10.10
2018-11-11T18:25:26.122Z,10.20
2018-11-11T18:27:55.075Z,10.20
2018-11-11T18:30:27.455Z,10.30
2018-11-11T18:32:56.571Z,10.30
2018-11-11T18:35:25.514Z,10.10
2018-11-11T18:37:54.515Z,10.00
2018-11-11T18:40:24.902Z,10.00
2018-11-11T18:42:53.935Z,10.00
2018-11-11T18:45:24.318Z,10.10
2018-11-11T18:47:53.499Z,9.90
2018-11-11T18:50:23.970Z,10.00
2018-11-11T18:52:52.871Z,10.00
2018-11-11T18:55:21.815Z,10.00
2018-11-11T18:57:50.926Z,10.00
2018-11-11T19:00:22.180Z,9.90
2018-11-11T19:02:51.798Z,9.80
2018-11-11T19:05:21.376Z,10.00
2018-11-11T19:07:50.540Z,9.80
2018-11-11T19:10:20.936Z,10.10
2018-11-11T19:12:51.057Z,10.10
2018-11-11T19:15:20.549Z,9.80
2018-11-11T19:17:50.120Z,9.80
2018-11-11T19:20:20.256Z,10.10
2018-11-11T19:22:49.277Z,9.60
2018-11-11T19:25:19.499Z,9.70
2018-11-11T19:27:49.867Z,9.90
2018-11-11T19:30:19.766Z,9.80
2018-11-11T19:32:49.368Z,9.80
2018-11-11T19:35:18.533Z,9.70
2018-11-11T19:37:48.620Z,9.80
2018-11-11T19:40:21.754Z,9.70
2018-11-11T19:42:51.340Z,9.60
2018-11-11T19:45:21.665Z,9.70
2018-11-11T19:47:50.615Z,9.60
2018-11-11T19:50:20.884Z,9.60
2018-11-11T19:52:50.798Z,9.40
2018-11-11T19:55:20.310Z,9.40
2018-11-11T19:57:49.272Z,9.40
2018-11-11T20:00:21.859Z,9.30
2018-11-11T20:02:51.449Z,9.30
2018-11-11T20:05:20.826Z,9.50
2018-11-11T20:07:50.894Z,9.40
2018-11-11T20:10:20.516Z,9.40
2018-11-11T20:12:49.417Z,9.50
2018-11-11T20:15:20.111Z,9.50
2018-11-11T20:17:49.341Z,9.20
2018-11-11T20:20:19.689Z,9.70
2018-11-11T20:22:48.791Z,9.40
2018-11-11T20:25:18.617Z,9.40
2018-11-11T20:27:47.805Z,9.30
2018-11-11T20:30:22.877Z,9.30
2018-11-11T20:32:51.981Z,9.40
2018-11-11T20:35:22.213Z,9.30
2018-11-11T20:37:51.136Z,9.30
2018-11-11T20:40:21.243Z,9.40
2018-11-11T20:42:50.590Z,9.10
2018-11-11T20:45:20.886Z,9.30
2018-11-11T20:47:50.365Z,9.00
2018-11-11T20:50:26.792Z,9.20
2018-11-11T20:52:57.248Z,9.00
2018-11-11T20:55:26.149Z,9.00
2018-11-11T20:57:55.621Z,9.20
2018-11-11T21:00:25.804Z,9.00
2018-11-11T21:02:54.661Z,8.80
2018-11-11T21:05:24.910Z,8.90
2018-11-11T21:07:53.794Z,9.00
2018-11-11T21:10:24.034Z,8.70
2018-11-11T21:12:53.093Z,8.80
2018-11-11T21:15:23.316Z,8.70
2018-11-11T21:17:52.248Z,8.80
2018-11-11T21:20:22.522Z,8.50
2018-11-11T21:22:51.486Z,8.70
2018-11-11T21:25:20.678Z,8.70
2018-11-11T21:27:50.227Z,8.50
2018-11-11T21:30:21.757Z,8.80
2018-11-11T21:32:50.689Z,8.60
2018-11-11T21:35:19.588Z,8.70
2018-11-11T21:37:48.507Z,8.60
2018-11-11T21:40:21.557Z,8.80
2018-11-11T21:42:51.272Z,8.60
2018-11-11T21:45:21.357Z,8.90
2018-11-11T21:47:50.239Z,8.60
2018-11-11T21:50:20.291Z,8.90
2018-11-11T21:53:55.675Z,8.90
2018-11-11T21:56:24.634Z,8.70
2018-11-11T21:58:53.663Z,8.60
2018-11-11T22:01:22.557Z,8.60
2018-11-11T22:03:51.462Z,8.60
2018-11-11T22:06:20.397Z,8.50
2018-11-11T22:08:49.380Z,8.50
2018-11-11T22:11:18.229Z,8.30
2018-11-11T22:13:47.111Z,8.50
2018-11-11T22:16:15.991Z,8.40
2018-11-11T22:18:44.945Z,8.50
2018-11-11T22:21:13.822Z,8.40
2018-11-11T22:23:42.747Z,8.20
2018-11-11T22:26:11.729Z,8.20
2018-11-11T22:28:40.630Z,8.50
2018-11-11T22:31:09.501Z,8.30
2018-11-11T22:33:38.372Z,8.20
2018-11-11T22:36:07.290Z,8.30
2018-11-11T22:38:36.177Z,8.40
2018-11-11T22:41:05.073Z,8.10
2018-11-11T22:43:33.951Z,8.40
2018-11-11T22:46:02.929Z,8.20
2018-11-11T22:48:31.796Z,7.90
2018-11-11T22:51:00.664Z,8.10
2018-11-11T22:53:29.534Z,8.10
2018-11-11T22:55:58.421Z,7.90
2018-11-11T22:58:27.396Z,8.00
2018-11-11T23:01:01.690Z,8.00
2018-11-11T23:03:30.521Z,8.30
2018-11-11T23:05:59.452Z,8.10
2018-11-11T23:08:28.365Z,8.00
2018-11-11T23:11:04.042Z,8.30
2018-11-11T23:13:32.990Z,7.90
2018-11-11T23:16:01.913Z,8.30
2018-11-11T23:18:30.793Z,7.80
2018-11-11T23:20:59.715Z,8.20
2018-11-11T23:23:28.602Z,8.00
2018-11-11T23:25:57.486Z,7.80
2018-11-11T23:28:26.440Z,8.10
2018-11-11T23:30:55.299Z,8.20
2018-11-11T23:33:24.201Z,7.90
2018-11-11T23:35:53.097Z,7.90
2018-11-11T23:38:21.986Z,7.80
2018-11-11T23:40:50.888Z,7.80
2018-11-11T23:43:19.782Z,7.80
2018-11-11T23:45:48.672Z,7.90
2018-11-11T23:48:17.552Z,7.70
2018-11-11T23:50:46.470Z,7.80
2018-11-11T23:53:15.357Z,7.40
2018-11-11T23:55:45.192Z,7.60
2018-11-11T23:58:14.107Z,7.70
